sensor_id;sensor_type;location;lat;lon;timestamp;P1;durP1;ratioP1;P2;durP2;ratioP2
35795;SDS011;21916;52.428;13.302;2023-04-16T00:00:00;28.10;;;22.52;;
35795;SDS011;21916;52.428;13.302;2023-04-16T00:02:36;27.17;;;22.30;;
35795;SDS011;21916;52.428;13.302;2023-04-16T00:05:02;27.50;;;22.30;;
35795;SDS011;21916;52.428;13.302;2023-04-16T00:07:28;31.58;;;24.67;;
35795;SDS011;21916;52.428;13.302;2023-04-16T00:09:54;30.30;;;23.70;;
35795;SDS011;21916;52.428;13.302;2023-04-16T00:12:21;31.05;;;23.98;;
35795;SDS011;21916;52.428;13.302;2023-04-16T00:14:47;29.08;;;22.67;;
35795;SDS011;21916;52.428;13.302;2023-04-16T00:17:14;31.10;;;25.05;;
35795;SDS011;21916;52.428;13.302;2023-04-16T00:19:40;31.15;;;24.73;;
35795;SDS011;21916;52.428;13.302;2023-04-16T00:22:06;30.35;;;23.30;;
35795;SDS011;21916;52.428;13.302;2023-04-16T00:24:32;32.15;;;24.42;;
35795;SDS011;21916;52.428;13.302;2023-04-16T00:26:58;29.80;;;22.88;;
35795;SDS011;21916;52.428;13.302;2023-04-16T00:29:25;29.58;;;22.77;;
35795;SDS011;21916;52.428;13.302;2023-04-16T00:31:53;29.80;;;23.08;;
35795;SDS011;21916;52.428;13.302;2023-04-16T00:34:18;29.35;;;23.55;;
35795;SDS011;21916;52.428;13.302;2023-04-16T00:36:44;28.20;;;23.52;;
35795;SDS011;21916;52.428;13.302;2023-04-16T00:39:10;27.52;;;23.30;;
35795;SDS011;21916;52.428;13.302;2023-04-16T00:41:36;27.98;;;22.75;;
35795;SDS011;21916;52.428;13.302;2023-04-16T00:44:02;29.95;;;24.38;;
35795;SDS011;21916;52.428;13.302;2023-04-16T00:46:28;29.73;;;23.85;;
35795;SDS011;21916;52.428;13.302;2023-04-16T00:48:55;31.77;;;24.05;;
35795;SDS011;21916;52.428;13.302;2023-04-16T00:51:21;35.75;;;24.85;;
35795;SDS011;21916;52.428;13.302;2023-04-16T00:53:47;31.27;;;23.38;;
35795;SDS011;21916;52.428;13.302;2023-04-16T00:56:13;31.80;;;23.95;;
35795;SDS011;21916;52.428;13.302;2023-04-16T00:58:40;35.70;;;26.08;;
35795;SDS011;21916;52.428;13.302;2023-04-16T01:01:06;33.50;;;25.17;;
35795;SDS011;21916;52.428;13.302;2023-04-16T01:03:39;31.85;;;24.60;;
35795;SDS011;21916;52.428;13.302;2023-04-16T01:06:08;32.92;;;24.80;;
35795;SDS011;21916;52.428;13.302;2023-04-16T01:08:35;29.35;;;25.27;;
35795;SDS011;21916;52.428;13.302;2023-04-16T01:11:01;34.88;;;26.45;;
35795;SDS011;21916;52.428;13.302;2023-04-16T01:13:27;34.67;;;25.85;;
35795;SDS011;21916;52.428;13.302;2023-04-16T01:15:53;31.98;;;25.67;;
35795;SDS011;21916;52.428;13.302;2023-04-16T01:18:20;32.45;;;23.98;;
35795;SDS011;21916;52.428;13.302;2023-04-16T01:20:47;36.25;;;26.60;;
35795;SDS011;21916;52.428;13.302;2023-04-16T01:23:14;32.17;;;25.08;;
35795;SDS011;21916;52.428;13.302;2023-04-16T01:25:43;37.45;;;25.00;;
35795;SDS011;21916;52.428;13.302;2023-04-16T01:28:09;31.58;;;24.95;;
35795;SDS011;21916;52.428;13.302;2023-04-16T01:30:35;32.83;;;25.50;;
35795;SDS011;21916;52.428;13.302;2023-04-16T01:33:10;33.30;;;26.25;;
35795;SDS011;21916;52.428;13.302;2023-04-16T01:35:36;38.33;;;26.17;;
35795;SDS011;21916;52.428;13.302;2023-04-16T01:38:04;32.13;;;25.40;;
35795;SDS011;21916;52.428;13.302;2023-04-16T01:40:30;32.60;;;25.63;;
35795;SDS011;21916;52.428;13.302;2023-04-16T01:42:56;34.42;;;24.88;;
35795;SDS011;21916;52.428;13.302;2023-04-16T01:45:22;33.72;;;26.65;;
35795;SDS011;21916;52.428;13.302;2023-04-16T01:47:50;40.22;;;24.27;;
35795;SDS011;21916;52.428;13.302;2023-04-16T01:50:20;33.45;;;25.70;;
35795;SDS011;21916;52.428;13.302;2023-04-16T01:52:47;34.92;;;26.17;;
35795;SDS011;21916;52.428;13.302;2023-04-16T01:55:13;35.40;;;25.60;;
35795;SDS011;21916;52.428;13.302;2023-04-16T01:57:40;33.08;;;25.25;;
35795;SDS011;21916;52.428;13.302;2023-04-16T02:00:10;37.28;;;25.25;;
35795;SDS011;21916;52.428;13.302;2023-04-16T02:02:44;34.47;;;24.17;;
35795;SDS011;21916;52.428;13.302;2023-04-16T02:05:13;31.92;;;26.13;;
35795;SDS011;21916;52.428;13.302;2023-04-16T02:07:39;31.83;;;24.63;;
35795;SDS011;21916;52.428;13.302;2023-04-16T02:10:06;36.35;;;26.35;;
35795;SDS011;21916;52.428;13.302;2023-04-16T02:12:35;33.30;;;25.55;;
35795;SDS011;21916;52.428;13.302;2023-04-16T02:15:02;33.78;;;26.27;;
35795;SDS011;21916;52.428;13.302;2023-04-16T02:17:30;33.45;;;25.02;;
35795;SDS011;21916;52.428;13.302;2023-04-16T02:20:08;32.50;;;24.38;;
35795;SDS011;21916;52.428;13.302;2023-04-16T02:22:39;40.15;;;24.27;;
35795;SDS011;21916;52.428;13.302;2023-04-16T02:25:05;35.13;;;26.17;;
35795;SDS011;21916;52.428;13.302;2023-04-16T02:27:35;34.63;;;25.88;;
35795;SDS011;21916;52.428;13.302;2023-04-16T02:30:14;33.83;;;25.80;;
35795;SDS011;21916;52.428;13.302;2023-04-16T02:32:40;33.65;;;24.75;;
35795;SDS011;21916;52.428;13.302;2023-04-16T02:35:06;38.13;;;26.95;;
35795;SDS011;21916;52.428;13.302;2023-04-16T02:37:32;37.22;;;27.25;;
35795;SDS011;21916;52.428;13.302;2023-04-16T02:39:58;36.00;;;26.55;;
35795;SDS011;21916;52.428;13.302;2023-04-16T02:42:24;36.88;;;26.35;;
35795;SDS011;21916;52.428;13.302;2023-04-16T02:44:53;36.83;;;27.88;;
35795;SDS011;21916;52.428;13.302;2023-04-16T02:47:19;36.42;;;27.45;;
35795;SDS011;21916;52.428;13.302;2023-04-16T02:49:45;37.53;;;27.70;;
35795;SDS011;21916;52.428;13.302;2023-04-16T02:52:11;40.58;;;27.98;;
35795;SDS011;21916;52.428;13.302;2023-04-16T02:54:36;36.38;;;27.40;;
35795;SDS011;21916;52.428;13.302;2023-04-16T02:57:02;34.08;;;25.38;;
35795;SDS011;21916;52.428;13.302;2023-04-16T02:59:30;38.22;;;26.40;;
35795;SDS011;21916;52.428;13.302;2023-04-16T03:01:56;34.78;;;26.52;;
35795;SDS011;21916;52.428;13.302;2023-04-16T03:04:22;35.83;;;26.63;;
35795;SDS011;21916;52.428;13.302;2023-04-16T03:06:48;32.92;;;25.92;;
35795;SDS011;21916;52.428;13.302;2023-04-16T03:09:14;40.17;;;27.70;;
35795;SDS011;21916;52.428;13.302;2023-04-16T03:11:40;39.47;;;28.27;;
35795;SDS011;21916;52.428;13.302;2023-04-16T03:14:06;44.30;;;29.70;;
35795;SDS011;21916;52.428;13.302;2023-04-16T03:16:32;41.53;;;30.58;;
35795;SDS011;21916;52.428;13.302;2023-04-16T03:18:58;45.72;;;30.20;;
35795;SDS011;21916;52.428;13.302;2023-04-16T03:21:24;45.25;;;31.30;;
35795;SDS011;21916;52.428;13.302;2023-04-16T03:23:52;43.92;;;29.17;;
35795;SDS011;21916;52.428;13.302;2023-04-16T03:26:20;48.13;;;30.48;;
35795;SDS011;21916;52.428;13.302;2023-04-16T03:28:49;45.40;;;31.73;;
35795;SDS011;21916;52.428;13.302;2023-04-16T03:31:15;50.88;;;33.25;;
35795;SDS011;21916;52.428;13.302;2023-04-16T03:33:41;45.38;;;33.33;;
35795;SDS011;21916;52.428;13.302;2023-04-16T03:36:07;50.03;;;31.60;;
35795;SDS011;21916;52.428;13.302;2023-04-16T03:38:34;52.80;;;32.40;;
35795;SDS011;21916;52.428;13.302;2023-04-16T03:41:00;48.10;;;31.50;;
35795;SDS011;21916;52.428;13.302;2023-04-16T03:43:28;47.28;;;32.20;;
35795;SDS011;21916;52.428;13.302;2023-04-16T03:45:54;50.88;;;32.20;;
35795;SDS011;21916;52.428;13.302;2023-04-16T03:48:22;49.60;;;32.15;;
35795;SDS011;21916;52.428;13.302;2023-04-16T03:50:48;47.00;;;31.60;;
35795;SDS011;21916;52.428;13.302;2023-04-16T03:53:15;48.28;;;32.17;;
35795;SDS011;21916;52.428;13.302;2023-04-16T03:55:42;49.65;;;32.58;;
35795;SDS011;21916;52.428;13.302;2023-04-16T03:58:08;53.05;;;34.08;;
35795;SDS011;21916;52.428;13.302;2023-04-16T04:00:34;54.17;;;33.30;;
35795;SDS011;21916;52.428;13.302;2023-04-16T04:03:09;55.83;;;34.72;;
35795;SDS011;21916;52.428;13.302;2023-04-16T04:05:38;51.90;;;33.70;;
35795;SDS011;21916;52.428;13.302;2023-04-16T04:08:06;54.70;;;35.70;;
35795;SDS011;21916;52.428;13.302;2023-04-16T04:10:32;54.63;;;34.80;;
35795;SDS011;21916;52.428;13.302;2023-04-16T04:13:01;56.60;;;33.83;;
35795;SDS011;21916;52.428;13.302;2023-04-16T04:15:28;54.20;;;34.88;;
35795;SDS011;21916;52.428;13.302;2023-04-16T04:17:54;60.85;;;34.75;;
35795;SDS011;21916;52.428;13.302;2023-04-16T04:20:21;56.03;;;33.53;;
35795;SDS011;21916;52.428;13.302;2023-04-16T04:22:49;53.13;;;33.95;;
35795;SDS011;21916;52.428;13.302;2023-04-16T04:25:18;49.85;;;33.30;;
35795;SDS011;21916;52.428;13.302;2023-04-16T04:27:44;51.63;;;32.45;;
35795;SDS011;21916;52.428;13.302;2023-04-16T04:30:10;51.88;;;32.25;;
35795;SDS011;21916;52.428;13.302;2023-04-16T04:32:37;49.15;;;32.20;;
35795;SDS011;21916;52.428;13.302;2023-04-16T04:35:03;51.17;;;31.75;;
35795;SDS011;21916;52.428;13.302;2023-04-16T04:37:29;51.50;;;31.65;;
35795;SDS011;21916;52.428;13.302;2023-04-16T04:39:56;49.25;;;30.23;;
35795;SDS011;21916;52.428;13.302;2023-04-16T04:42:23;53.00;;;30.33;;
35795;SDS011;21916;52.428;13.302;2023-04-16T04:44:49;53.35;;;29.75;;
35795;SDS011;21916;52.428;13.302;2023-04-16T04:47:15;53.28;;;31.52;;
35795;SDS011;21916;52.428;13.302;2023-04-16T04:49:42;55.35;;;31.58;;
35795;SDS011;21916;52.428;13.302;2023-04-16T04:52:07;52.10;;;30.23;;
35795;SDS011;21916;52.428;13.302;2023-04-16T04:54:33;51.17;;;33.58;;
35795;SDS011;21916;52.428;13.302;2023-04-16T04:56:59;53.85;;;33.22;;
35795;SDS011;21916;52.428;13.302;2023-04-16T04:59:27;53.72;;;32.53;;
35795;SDS011;21916;52.428;13.302;2023-04-16T05:01:53;56.65;;;33.88;;
35795;SDS011;21916;52.428;13.302;2023-04-16T05:04:19;54.25;;;32.97;;
35795;SDS011;21916;52.428;13.302;2023-04-16T05:06:45;57.47;;;33.35;;
35795;SDS011;21916;52.428;13.302;2023-04-16T05:09:11;53.95;;;33.08;;
35795;SDS011;21916;52.428;13.302;2023-04-16T05:11:37;52.55;;;32.83;;
35795;SDS011;21916;52.428;13.302;2023-04-16T05:14:03;56.30;;;33.72;;
35795;SDS011;21916;52.428;13.302;2023-04-16T05:16:29;57.55;;;34.78;;
35795;SDS011;21916;52.428;13.302;2023-04-16T05:18:55;61.47;;;34.72;;
35795;SDS011;21916;52.428;13.302;2023-04-16T05:21:22;59.33;;;34.72;;
35795;SDS011;21916;52.428;13.302;2023-04-16T05:23:48;59.20;;;36.17;;
35795;SDS011;21916;52.428;13.302;2023-04-16T05:26:14;58.55;;;33.53;;
35795;SDS011;21916;52.428;13.302;2023-04-16T05:28:40;58.78;;;35.83;;
35795;SDS011;21916;52.428;13.302;2023-04-16T05:31:06;65.93;;;35.22;;
35795;SDS011;21916;52.428;13.302;2023-04-16T05:33:32;52.75;;;33.67;;
35795;SDS011;21916;52.428;13.302;2023-04-16T05:35:58;56.08;;;34.22;;
35795;SDS011;21916;52.428;13.302;2023-04-16T05:38:24;54.35;;;32.97;;
35795;SDS011;21916;52.428;13.302;2023-04-16T05:40:49;58.38;;;35.35;;
35795;SDS011;21916;52.428;13.302;2023-04-16T05:43:16;58.28;;;34.20;;
35795;SDS011;21916;52.428;13.302;2023-04-16T05:45:42;53.83;;;33.03;;
35795;SDS011;21916;52.428;13.302;2023-04-16T05:48:08;49.55;;;31.17;;
35795;SDS011;21916;52.428;13.302;2023-04-16T05:50:34;53.78;;;32.60;;
35795;SDS011;21916;52.428;13.302;2023-04-16T05:53:01;49.85;;;30.00;;
35795;SDS011;21916;52.428;13.302;2023-04-16T05:55:30;48.22;;;30.30;;
35795;SDS011;21916;52.428;13.302;2023-04-16T05:57:57;44.55;;;29.42;;
35795;SDS011;21916;52.428;13.302;2023-04-16T06:00:23;48.40;;;29.13;;
35795;SDS011;21916;52.428;13.302;2023-04-16T06:02:49;42.20;;;28.35;;
35795;SDS011;21916;52.428;13.302;2023-04-16T06:05:15;39.15;;;26.65;;
35795;SDS011;21916;52.428;13.302;2023-04-16T06:07:41;40.55;;;25.55;;
35795;SDS011;21916;52.428;13.302;2023-04-16T06:10:07;36.97;;;24.52;;
35795;SDS011;21916;52.428;13.302;2023-04-16T06:12:34;39.28;;;25.67;;
35795;SDS011;21916;52.428;13.302;2023-04-16T06:15:00;39.85;;;25.30;;
35795;SDS011;21916;52.428;13.302;2023-04-16T06:17:27;38.88;;;24.85;;
35795;SDS011;21916;52.428;13.302;2023-04-16T06:19:53;38.28;;;25.13;;
35795;SDS011;21916;52.428;13.302;2023-04-16T06:22:19;37.05;;;24.10;;
35795;SDS011;21916;52.428;13.302;2023-04-16T06:24:45;40.78;;;23.85;;
35795;SDS011;21916;52.428;13.302;2023-04-16T06:27:11;34.47;;;23.65;;
35795;SDS011;21916;52.428;13.302;2023-04-16T06:29:37;37.50;;;23.70;;
35795;SDS011;21916;52.428;13.302;2023-04-16T06:32:02;37.70;;;24.10;;
35795;SDS011;21916;52.428;13.302;2023-04-16T06:34:29;38.35;;;23.65;;
35795;SDS011;21916;52.428;13.302;2023-04-16T06:36:55;33.80;;;22.13;;
35795;SDS011;21916;52.428;13.302;2023-04-16T06:39:21;34.08;;;22.20;;
35795;SDS011;21916;52.428;13.302;2023-04-16T06:41:47;34.45;;;21.67;;
35795;SDS011;21916;52.428;13.302;2023-04-16T06:44:13;32.33;;;22.40;;
35795;SDS011;21916;52.428;13.302;2023-04-16T06:46:39;32.42;;;22.55;;
35795;SDS011;21916;52.428;13.302;2023-04-16T06:49:06;31.48;;;20.42;;
35795;SDS011;21916;52.428;13.302;2023-04-16T06:51:32;32.65;;;21.65;;
35795;SDS011;21916;52.428;13.302;2023-04-16T06:53:58;31.67;;;20.95;;
35795;SDS011;21916;52.428;13.302;2023-04-16T06:56:24;34.45;;;22.63;;
35795;SDS011;21916;52.428;13.302;2023-04-16T06:58:51;31.02;;;20.58;;
35795;SDS011;21916;52.428;13.302;2023-04-16T07:01:17;32.90;;;22.75;;
35795;SDS011;21916;52.428;13.302;2023-04-16T07:03:43;31.95;;;22.50;;
35795;SDS011;21916;52.428;13.302;2023-04-16T07:06:10;30.30;;;22.20;;
35795;SDS011;21916;52.428;13.302;2023-04-16T07:08:36;32.70;;;21.50;;
35795;SDS011;21916;52.428;13.302;2023-04-16T07:11:02;34.92;;;22.67;;
35795;SDS011;21916;52.428;13.302;2023-04-16T07:13:29;30.15;;;21.38;;
35795;SDS011;21916;52.428;13.302;2023-04-16T07:15:55;32.55;;;21.17;;
35795;SDS011;21916;52.428;13.302;2023-04-16T07:18:21;33.00;;;21.85;;
35795;SDS011;21916;52.428;13.302;2023-04-16T07:20:48;30.83;;;21.65;;
35795;SDS011;21916;52.428;13.302;2023-04-16T07:23:15;30.75;;;21.35;;
35795;SDS011;21916;52.428;13.302;2023-04-16T07:25:41;34.65;;;21.98;;
35795;SDS011;21916;52.428;13.302;2023-04-16T07:28:07;32.85;;;22.23;;
35795;SDS011;21916;52.428;13.302;2023-04-16T07:30:33;30.55;;;21.80;;
35795;SDS011;21916;52.428;13.302;2023-04-16T07:33:03;33.53;;;23.05;;
35795;SDS011;21916;52.428;13.302;2023-04-16T07:35:29;33.20;;;23.00;;
35795;SDS011;21916;52.428;13.302;2023-04-16T07:37:56;31.83;;;22.60;;
35795;SDS011;21916;52.428;13.302;2023-04-16T07:40:22;34.35;;;22.35;;
35795;SDS011;21916;52.428;13.302;2023-04-16T07:42:48;35.05;;;22.92;;
35795;SDS011;21916;52.428;13.302;2023-04-16T07:45:15;32.83;;;22.60;;
35795;SDS011;21916;52.428;13.302;2023-04-16T07:47:42;33.28;;;22.92;;
35795;SDS011;21916;52.428;13.302;2023-04-16T07:50:09;34.15;;;23.10;;
35795;SDS011;21916;52.428;13.302;2023-04-16T07:52:36;38.50;;;24.08;;
35795;SDS011;21916;52.428;13.302;2023-04-16T07:55:06;31.05;;;21.48;;
35795;SDS011;21916;52.428;13.302;2023-04-16T07:57:32;32.63;;;21.25;;
35795;SDS011;21916;52.428;13.302;2023-04-16T07:59:58;37.42;;;22.85;;
35795;SDS011;21916;52.428;13.302;2023-04-16T08:02:26;32.70;;;21.92;;
35795;SDS011;21916;52.428;13.302;2023-04-16T08:04:53;32.13;;;21.90;;
35795;SDS011;21916;52.428;13.302;2023-04-16T08:07:18;32.42;;;22.42;;
35795;SDS011;21916;52.428;13.302;2023-04-16T08:09:48;35.10;;;21.92;;
35795;SDS011;21916;52.428;13.302;2023-04-16T08:12:17;31.77;;;21.87;;
35795;SDS011;21916;52.428;13.302;2023-04-16T08:14:44;33.58;;;21.42;;
35795;SDS011;21916;52.428;13.302;2023-04-16T08:17:11;32.22;;;21.13;;
35795;SDS011;21916;52.428;13.302;2023-04-16T08:19:38;32.53;;;21.27;;
35795;SDS011;21916;52.428;13.302;2023-04-16T08:22:04;32.22;;;21.13;;
35795;SDS011;21916;52.428;13.302;2023-04-16T08:24:30;30.73;;;20.08;;
35795;SDS011;21916;52.428;13.302;2023-04-16T08:26:56;32.10;;;20.90;;
35795;SDS011;21916;52.428;13.302;2023-04-16T08:29:22;34.08;;;21.33;;
35795;SDS011;21916;52.428;13.302;2023-04-16T08:31:51;32.17;;;21.65;;
35795;SDS011;21916;52.428;13.302;2023-04-16T08:34:18;30.40;;;19.83;;
35795;SDS011;21916;52.428;13.302;2023-04-16T08:36:45;30.33;;;21.27;;
35795;SDS011;21916;52.428;13.302;2023-04-16T08:39:11;28.17;;;18.08;;
35795;SDS011;21916;52.428;13.302;2023-04-16T08:41:37;29.15;;;20.27;;
35795;SDS011;21916;52.428;13.302;2023-04-16T08:44:07;32.65;;;20.42;;
35795;SDS011;21916;52.428;13.302;2023-04-16T08:46:36;30.35;;;19.40;;
35795;SDS011;21916;52.428;13.302;2023-04-16T08:49:05;27.65;;;17.67;;
35795;SDS011;21916;52.428;13.302;2023-04-16T08:51:35;29.60;;;19.25;;
35795;SDS011;21916;52.428;13.302;2023-04-16T08:54:06;28.15;;;18.17;;
35795;SDS011;21916;52.428;13.302;2023-04-16T08:56:36;29.90;;;19.05;;
35795;SDS011;21916;52.428;13.302;2023-04-16T08:59:04;29.38;;;18.70;;
35795;SDS011;21916;52.428;13.302;2023-04-16T09:01:34;30.45;;;19.10;;
35795;SDS011;21916;52.428;13.302;2023-04-16T09:04:01;28.50;;;17.73;;
35795;SDS011;21916;52.428;13.302;2023-04-16T09:06:27;24.85;;;16.67;;
35795;SDS011;21916;52.428;13.302;2023-04-16T09:08:53;24.63;;;17.65;;
35795;SDS011;21916;52.428;13.302;2023-04-16T09:11:20;23.90;;;16.05;;
35795;SDS011;21916;52.428;13.302;2023-04-16T09:13:46;28.35;;;16.65;;
35795;SDS011;21916;52.428;13.302;2023-04-16T09:16:12;23.58;;;16.42;;
35795;SDS011;21916;52.428;13.302;2023-04-16T09:18:39;25.05;;;15.80;;
35795;SDS011;21916;52.428;13.302;2023-04-16T09:21:06;23.48;;;15.35;;
35795;SDS011;21916;52.428;13.302;2023-04-16T09:23:35;21.13;;;15.43;;
35795;SDS011;21916;52.428;13.302;2023-04-16T09:26:01;22.67;;;15.05;;
35795;SDS011;21916;52.428;13.302;2023-04-16T09:28:42;21.58;;;15.88;;
35795;SDS011;21916;52.428;13.302;2023-04-16T09:31:13;24.13;;;15.82;;
35795;SDS011;21916;52.428;13.302;2023-04-16T09:33:40;24.67;;;17.42;;
35795;SDS011;21916;52.428;13.302;2023-04-16T09:36:07;22.48;;;16.13;;
35795;SDS011;21916;52.428;13.302;2023-04-16T09:38:44;26.13;;;16.65;;
35795;SDS011;21916;52.428;13.302;2023-04-16T09:41:14;25.85;;;16.90;;
35795;SDS011;21916;52.428;13.302;2023-04-16T09:43:48;23.13;;;16.88;;
35795;SDS011;21916;52.428;13.302;2023-04-16T09:46:33;22.67;;;16.33;;
35795;SDS011;21916;52.428;13.302;2023-04-16T09:49:12;27.50;;;17.48;;
35795;SDS011;21916;52.428;13.302;2023-04-16T09:51:40;20.77;;;15.93;;
35795;SDS011;21916;52.428;13.302;2023-04-16T09:54:07;18.20;;;14.32;;
35795;SDS011;21916;52.428;13.302;2023-04-16T09:56:43;23.23;;;15.77;;
35795;SDS011;21916;52.428;13.302;2023-04-16T09:59:17;18.35;;;14.15;;
35795;SDS011;21916;52.428;13.302;2023-04-16T10:01:43;19.50;;;14.80;;
35795;SDS011;21916;52.428;13.302;2023-04-16T10:04:14;19.83;;;13.48;;
35795;SDS011;21916;52.428;13.302;2023-04-16T10:06:40;17.52;;;13.98;;
35795;SDS011;21916;52.428;13.302;2023-04-16T10:09:06;20.92;;;15.73;;
35795;SDS011;21916;52.428;13.302;2023-04-16T10:11:36;23.23;;;15.57;;
35795;SDS011;21916;52.428;13.302;2023-04-16T10:14:02;19.42;;;14.43;;
35795;SDS011;21916;52.428;13.302;2023-04-16T10:16:28;22.67;;;15.48;;
35795;SDS011;21916;52.428;13.302;2023-04-16T10:18:55;23.20;;;17.48;;
35795;SDS011;21916;52.428;13.302;2023-04-16T10:21:21;22.33;;;17.48;;
35795;SDS011;21916;52.428;13.302;2023-04-16T10:23:48;23.65;;;18.25;;
35795;SDS011;21916;52.428;13.302;2023-04-16T10:26:16;23.45;;;18.05;;
35795;SDS011;21916;52.428;13.302;2023-04-16T10:28:43;22.75;;;16.35;;
35795;SDS011;21916;52.428;13.302;2023-04-16T10:31:10;25.00;;;17.70;;
35795;SDS011;21916;52.428;13.302;2023-04-16T10:33:40;25.45;;;18.55;;
35795;SDS011;21916;52.428;13.302;2023-04-16T10:38:44;29.80;;;19.33;;
35795;SDS011;21916;52.428;13.302;2023-04-16T10:41:11;23.95;;;18.25;;
35795;SDS011;21916;52.428;13.302;2023-04-16T10:43:38;25.08;;;19.08;;
35795;SDS011;21916;52.428;13.302;2023-04-16T10:49:14;25.50;;;18.38;;
35795;SDS011;21916;52.428;13.302;2023-04-16T10:51:51;28.60;;;19.23;;
35795;SDS011;21916;52.428;13.302;2023-04-16T10:56:46;27.52;;;19.35;;
35795;SDS011;21916;52.428;13.302;2023-04-16T10:59:16;22.10;;;16.83;;
35795;SDS011;21916;52.428;13.302;2023-04-16T11:01:43;29.20;;;18.60;;
35795;SDS011;21916;52.428;13.302;2023-04-16T11:07:20;27.95;;;19.42;;
35795;SDS011;21916;52.428;13.302;2023-04-16T11:10:00;30.88;;;20.05;;
35795;SDS011;21916;52.428;13.302;2023-04-16T11:12:41;31.75;;;21.13;;
35795;SDS011;21916;52.428;13.302;2023-04-16T11:15:11;36.88;;;23.25;;
35795;SDS011;21916;52.428;13.302;2023-04-16T11:17:45;34.47;;;23.17;;
35795;SDS011;21916;52.428;13.302;2023-04-16T11:20:16;33.00;;;23.42;;
35795;SDS011;21916;52.428;13.302;2023-04-16T11:22:51;33.03;;;21.80;;
35795;SDS011;21916;52.428;13.302;2023-04-16T11:25:22;31.65;;;22.75;;
35795;SDS011;21916;52.428;13.302;2023-04-16T11:27:58;37.58;;;22.58;;
35795;SDS011;21916;52.428;13.302;2023-04-16T11:30:38;34.00;;;24.15;;
35795;SDS011;21916;52.428;13.302;2023-04-16T11:33:09;31.98;;;22.70;;
35795;SDS011;21916;52.428;13.302;2023-04-16T11:35:36;33.97;;;22.83;;
35795;SDS011;21916;52.428;13.302;2023-04-16T11:38:07;29.95;;;21.70;;
35795;SDS011;21916;52.428;13.302;2023-04-16T11:40:34;31.08;;;21.55;;
35795;SDS011;21916;52.428;13.302;2023-04-16T11:43:13;29.33;;;20.73;;
35795;SDS011;21916;52.428;13.302;2023-04-16T11:45:56;29.33;;;22.20;;
35795;SDS011;21916;52.428;13.302;2023-04-16T11:48:23;26.23;;;20.45;;
35795;SDS011;21916;52.428;13.302;2023-04-16T11:50:56;27.52;;;20.25;;
35795;SDS011;21916;52.428;13.302;2023-04-16T11:53:23;26.50;;;20.48;;
35795;SDS011;21916;52.428;13.302;2023-04-16T11:55:49;29.40;;;20.90;;
35795;SDS011;21916;52.428;13.302;2023-04-16T11:58:15;26.65;;;20.13;;
35795;SDS011;21916;52.428;13.302;2023-04-16T12:00:41;26.50;;;19.88;;
35795;SDS011;21916;52.428;13.302;2023-04-16T12:03:07;26.77;;;19.10;;
35795;SDS011;21916;52.428;13.302;2023-04-16T12:05:36;28.85;;;21.08;;
35795;SDS011;21916;52.428;13.302;2023-04-16T12:08:04;24.35;;;19.50;;
35795;SDS011;21916;52.428;13.302;2023-04-16T12:10:36;25.40;;;18.20;;
35795;SDS011;21916;52.428;13.302;2023-04-16T12:13:20;24.08;;;18.10;;
35795;SDS011;21916;52.428;13.302;2023-04-16T12:15:46;22.73;;;17.05;;
35795;SDS011;21916;52.428;13.302;2023-04-16T12:18:17;22.27;;;16.60;;
35795;SDS011;21916;52.428;13.302;2023-04-16T12:20:44;19.95;;;15.63;;
35795;SDS011;21916;52.428;13.302;2023-04-16T12:23:21;22.92;;;16.52;;
35795;SDS011;21916;52.428;13.302;2023-04-16T12:25:48;20.50;;;15.82;;
35795;SDS011;21916;52.428;13.302;2023-04-16T12:28:29;19.65;;;16.15;;
35795;SDS011;21916;52.428;13.302;2023-04-16T12:30:59;19.50;;;15.75;;
35795;SDS011;21916;52.428;13.302;2023-04-16T12:33:26;18.75;;;14.48;;
35795;SDS011;21916;52.428;13.302;2023-04-16T12:35:52;20.13;;;15.35;;
35795;SDS011;21916;52.428;13.302;2023-04-16T12:38:19;21.75;;;14.73;;
35795;SDS011;21916;52.428;13.302;2023-04-16T12:40:45;18.58;;;14.18;;
35795;SDS011;21916;52.428;13.302;2023-04-16T12:43:12;20.40;;;15.73;;
35795;SDS011;21916;52.428;13.302;2023-04-16T12:45:38;19.52;;;14.18;;
35795;SDS011;21916;52.428;13.302;2023-04-16T12:48:05;17.98;;;13.52;;
35795;SDS011;21916;52.428;13.302;2023-04-16T12:50:33;20.05;;;13.85;;
35795;SDS011;21916;52.428;13.302;2023-04-16T12:52:59;19.38;;;15.05;;
35795;SDS011;21916;52.428;13.302;2023-04-16T12:55:25;19.90;;;15.00;;
35795;SDS011;21916;52.428;13.302;2023-04-16T12:57:51;17.17;;;13.98;;
35795;SDS011;21916;52.428;13.302;2023-04-16T13:00:19;24.33;;;16.35;;
35795;SDS011;21916;52.428;13.302;2023-04-16T13:02:45;19.10;;;15.13;;
35795;SDS011;21916;52.428;13.302;2023-04-16T13:05:11;21.42;;;15.60;;
35795;SDS011;21916;52.428;13.302;2023-04-16T13:07:40;17.92;;;14.02;;
35795;SDS011;21916;52.428;13.302;2023-04-16T13:10:07;19.13;;;12.90;;
35795;SDS011;21916;52.428;13.302;2023-04-16T13:12:33;15.68;;;12.60;;
35795;SDS011;21916;52.428;13.302;2023-04-16T13:14:59;18.45;;;12.55;;
35795;SDS011;21916;52.428;13.302;2023-04-16T13:17:25;19.02;;;12.25;;
35795;SDS011;21916;52.428;13.302;2023-04-16T13:19:51;14.60;;;12.05;;
35795;SDS011;21916;52.428;13.302;2023-04-16T13:22:17;14.95;;;11.93;;
35795;SDS011;21916;52.428;13.302;2023-04-16T13:24:44;18.70;;;12.68;;
35795;SDS011;21916;52.428;13.302;2023-04-16T13:27:12;14.70;;;12.23;;
35795;SDS011;21916;52.428;13.302;2023-04-16T13:29:40;17.08;;;13.73;;
35795;SDS011;21916;52.428;13.302;2023-04-16T13:32:07;17.67;;;14.05;;
35795;SDS011;21916;52.428;13.302;2023-04-16T13:34:34;16.80;;;13.95;;
35795;SDS011;21916;52.428;13.302;2023-04-16T13:37:00;17.38;;;13.38;;
35795;SDS011;21916;52.428;13.302;2023-04-16T13:39:26;18.63;;;14.30;;
35795;SDS011;21916;52.428;13.302;2023-04-16T13:41:52;22.73;;;15.23;;
35795;SDS011;21916;52.428;13.302;2023-04-16T13:44:18;21.33;;;14.40;;
35795;SDS011;21916;52.428;13.302;2023-04-16T13:46:44;19.30;;;14.85;;
35795;SDS011;21916;52.428;13.302;2023-04-16T13:49:12;19.75;;;15.27;;
35795;SDS011;21916;52.428;13.302;2023-04-16T13:51:38;17.88;;;14.32;;
35795;SDS011;21916;52.428;13.302;2023-04-16T13:54:07;18.10;;;13.70;;
35795;SDS011;21916;52.428;13.302;2023-04-16T13:56:33;20.58;;;14.63;;
35795;SDS011;21916;52.428;13.302;2023-04-16T13:58:59;20.48;;;14.57;;
35795;SDS011;21916;52.428;13.302;2023-04-16T14:01:25;19.35;;;14.45;;
35795;SDS011;21916;52.428;13.302;2023-04-16T14:03:51;16.92;;;14.50;;
35795;SDS011;21916;52.428;13.302;2023-04-16T14:06:16;18.42;;;14.18;;
35795;SDS011;21916;52.428;13.302;2023-04-16T14:08:43;20.17;;;14.63;;
35795;SDS011;21916;52.428;13.302;2023-04-16T14:11:10;19.13;;;13.85;;
35795;SDS011;21916;52.428;13.302;2023-04-16T14:13:36;20.15;;;14.02;;
35795;SDS011;21916;52.428;13.302;2023-04-16T14:16:02;25.27;;;16.10;;
35795;SDS011;21916;52.428;13.302;2023-04-16T14:18:28;18.48;;;14.00;;
35795;SDS011;21916;52.428;13.302;2023-04-16T14:20:54;19.10;;;13.20;;